Latest Weather Observations for Rottnest Island

IDW60801

Issued at 7:33 pm WST Sunday 26 June 2016 (issued every 30 minutes, with the page automatically refreshed every 10 minutes)

About weather observations | Map of weather stations | Latest weather observations for WA | Other Formats
Station Details ID: 009193 Name: ROTTNEST ISLAND Lat: -32.01 Lon: 115.50 Height: 43.1 m
Data from the previous 72 hours. | See also: Recent months at Rottnest Island
Date/Time
WST
Temp
°C
App
Temp
°C
Dew
Point
°C
Rel
Hum
%
Delta-T
°C
Wind Press
QNH
hPa
Press
MSL
hPa
Rain since
9am
mm
Dir  Spd
km/h
Gust
km/h
Spd
kts
Gust
kts
26/07:30pm 15.0 12.0 7.8 62 3.6 NNW 13 15 7 8 1022.7 1022.7 0.0
26/07:00pm 15.3 13.3 8.5 64 3.4 NNW 9 11 5 6 1022.6 1022.6 0.0
26/06:30pm 15.2 12.5 9.1 67 3.1 WNW 13 19 7 10 1022.6 1022.6 0.0
26/06:00pm 15.8 11.9 8.5 62 3.7 NNW 19 24 10 13 1022.3 1022.3 0.0
26/05:30pm 15.9 11.0 8.6 62 3.7 NNW 24 32 13 17 1022.1 1022.1 0.0
26/05:00pm 15.8 10.5 8.3 61 3.8 NNW 26 33 14 18 1022.1 1022.1 0.0
26/04:30pm 16.3 11.4 8.3 59 4.1 NNW 24 30 13 16 1022.3 1022.3 0.0
26/04:00pm 16.1 10.3 8.1 59 4.0 NNW 28 35 15 19 1022.4 1022.4 0.0
26/03:30pm 16.8 10.7 8.2 57 4.4 NNW 30 35 16 19 1022.2 1022.2 0.0
26/03:00pm 16.9 10.8 8.1 56 4.5 N 30 37 16 20 1022.3 1022.3 0.0
26/02:30pm 15.8 10.7 7.8 59 4.0 N 24 33 13 18 1022.3 1022.3 0.0
26/02:00pm 15.8 10.0 7.8 59 4.0 N 28 35 15 19 1022.6 1022.6 0.0
26/01:30pm 16.1 9.8 7.6 57 4.3 N 30 39 16 21 1023.0 1023.0 0.0
26/01:00pm 16.8 10.8 6.9 52 4.9 N 28 39 15 21 1023.4 1023.4 0.0
26/12:30pm 16.7 10.4 7.6 55 4.6 N 30 35 16 19 1023.8 1023.8 0.0
26/12:00pm 16.4 10.1 7.3 55 4.5 N 30 37 16 20 1024.2 1024.2 0.0
26/11:30am 15.3 8.6 7.3 59 4.0 N 32 37 17 20 1024.5 1024.5 0.0
26/11:00am 15.5 9.3 8.0 61 3.8 N 30 37 16 20 1024.9 1024.9 0.0
26/10:30am 15.3 9.0 7.3 59 4.0 N 30 39 16 21 1025.1 1025.1 0.0
26/10:00am 14.9 8.6 7.2 60 3.8 N 30 37 16 20 1025.4 1025.4 0.0
26/09:30am 14.8 8.8 6.9 59 3.9 N 28 35 15 19 1025.2 1025.2 0.0
26/09:00am 14.2 8.0 6.3 59 3.8 NNE 28 33 15 18 1025.1 1025.1 1.6
26/08:30am 13.8 8.4 6.4 61 3.6 NNE 24 28 13 15 1025.0 1025.0 1.6
26/08:00am 12.8 8.2 6.4 65 3.0 NNE 20 28 11 15 1024.9 1024.9 1.6
26/07:30am 12.4 7.3 6.2 66 2.9 NNE 22 26 12 14 1024.9 1024.9 1.6
26/07:00am 12.7 8.3 6.5 66 2.9 NNE 19 24 10 13 1024.4 1024.4 1.6
26/06:30am 12.5 8.0 6.3 66 2.9 NNE 19 24 10 13 1024.1 1024.1 1.6
26/06:00am 12.4 7.9 6.0 65 3.0 NNE 19 22 10 12 1023.8 1023.8 1.6
26/05:30am 12.6 7.9 6.0 64 3.1 NNE 20 26 11 14 1023.6 1023.6 1.6
26/05:00am 12.8 8.2 6.4 65 3.0 NNE 20 26 11 14 1023.7 1023.7 1.6
26/04:30am 12.6 8.0 6.6 67 2.9 NNE 20 24 11 13 1023.7 1023.7 1.6
26/04:00am 11.7 7.3 6.4 70 2.5 NNE 19 22 10 12 1023.7 1023.7 1.6
26/03:30am 11.7 7.6 6.2 69 2.6 NE 17 20 9 11 1023.7 1023.7 1.6
26/03:00am 12.6 9.0 6.9 68 2.7 NE 15 19 8 10 1023.8 1023.8 1.6
26/02:30am 12.6 9.2 7.5 71 2.5 NE 15 17 8 9 1024.0 1024.0 1.6
26/02:00am 12.8 9.8 7.5 70 2.6 ENE 13 15 7 8 1024.2 1024.2 1.6
26/01:30am 12.3 9.2 7.2 71 2.5 ENE 13 13 7 7 1023.9 1023.9 1.6
26/01:00am 12.2 9.1 7.1 71 2.4 E 13 15 7 8 1023.8 1023.8 1.6
26/12:30am 12.4 9.6 6.9 69 2.6 E 11 15 6 8 1023.7 1023.7 1.6
26/12:00am 13.3 10.6 7.3 67 2.9 ESE 11 13 6 7 1023.8 1023.8 1.6
 
Date/Time
WST
Temp
°C
App
Temp
°C
Dew
Point
°C
Rel
Hum
%
Delta-T
°C
Wind Press
QNH
hPa
Press
MSL
hPa
Rain since
9am
mm
Dir  Spd
km/h
Gust
km/h
Spd
kts
Gust
kts
25/11:30pm 13.1 10.1 7.5 69 2.7 ESE 13 15 7 8 1023.7 1023.7 1.6
25/11:00pm 13.2 10.1 7.2 67 2.9 ESE 13 17 7 9 1023.6 1023.6 1.6
25/10:30pm 13.6 10.1 7.2 65 3.1 ESE 15 19 8 10 1023.6 1023.6 1.6
25/10:00pm 13.9 10.1 5.8 58 3.8 ESE 15 20 8 11 1023.7 1023.7 1.6
25/09:30pm 14.1 10.0 6.2 59 3.8 SE 17 24 9 13 1023.7 1023.7 1.6
25/09:00pm 14.3 10.6 6.2 58 3.9 SE 15 22 8 12 1023.8 1023.8 1.6
25/08:30pm 14.8 10.0 5.6 54 4.4 SSE 20 28 11 15 1023.8 1023.8 1.6
25/08:00pm 14.8 9.9 5.3 53 4.5 SSE 20 28 11 15 1023.6 1023.6 1.6
25/07:30pm 14.5 9.4 5.8 56 4.1 SSE 22 30 12 16 1023.6 1023.6 1.6
25/07:00pm 14.8 8.6 6.1 56 4.2 S 28 35 15 19 1023.0 1023.0 1.6
25/06:30pm 14.5 8.8 6.6 59 3.8 S 26 33 14 18 1022.6 1022.6 1.6
25/06:00pm 14.6 8.8 6.4 58 3.9 S 26 35 14 19 1022.2 1022.2 1.6
25/05:30pm 14.4 8.7 6.5 59 3.8 SSE 26 35 14 19 1021.7 1021.7 1.6
25/05:00pm 14.7 8.0 7.3 61 3.6 S 32 41 17 22 1021.4 1021.4 1.6
25/04:30pm 14.9 7.8 6.5 57 4.1 S 33 43 18 23 1021.0 1021.0 1.6
25/04:00pm 14.8 8.1 7.4 61 3.6 S 32 41 17 22 1021.0 1021.0 1.6
25/03:30pm 15.0 7.8 7.5 61 3.7 SSE 35 43 19 23 1020.5 1020.5 1.6
25/03:00pm 15.4 8.1 7.2 58 4.0 S 35 44 19 24 1020.1 1020.0 1.6
25/02:30pm 15.4 7.1 7.7 60 3.8 S 41 50 22 27 1019.9 1019.8 1.6
25/02:00pm 15.6 8.8 9.3 66 3.2 S 35 52 19 28 1019.6 1019.5 1.6
25/01:58pm 15.7 9.3 9.4 66 3.3 S 33 52 18 28 1019.7 1019.6 1.6
25/01:30pm 15.5 9.2 9.8 69 3.0 SSE 33 39 18 21 1019.9 1019.8 1.6
25/01:00pm 15.3 9.8 10.5 73 2.5 SSE 30 39 16 21 1020.0 1019.9 1.6
25/12:30pm 15.0 9.9 10.6 75 2.3 SSE 28 35 15 19 1020.1 1020.0 1.6
25/12:00pm 14.6 8.4 10.2 75 2.3 SSE 33 44 18 24 1020.1 1020.0 1.6
25/11:30am 14.3 8.5 11.6 84 1.4 SSE 33 44 18 24 1020.0 1019.9 1.6
25/11:00am 13.2 8.2 12.1 93 0.6 SE 30 39 16 21 1020.3 1020.3 1.6
25/10:30am 13.4 7.0 12.0 91 0.8 SE 37 48 20 26 1019.8 1019.7 1.0
25/10:18am 13.3 5.6 11.5 89 1.0 SSE 43 56 23 30 1019.4 1019.3 0.8
25/10:00am 15.2 8.8 12.0 81 1.7 S 37 48 20 26 1019.3 1019.2 0.0
25/09:30am 14.8 7.0 11.2 79 1.9 SSW 43 54 23 29 1019.1 1019.0 0.0
25/09:00am 14.6 7.0 13.5 93 0.6 SSW 46 65 25 35 1018.7 1018.6 19.8
25/08:51am 15.5 8.7 10.7 73 2.5 SSW 37 63 20 34 1018.3 1018.2 19.2
25/08:30am 15.6 10.1 10.4 71 2.7 SSW 30 39 16 21 1018.3 1018.2 19.2
25/08:00am 15.2 8.4 10.6 74 2.4 SW 37 48 20 26 1018.0 1017.9 19.2
25/07:41am 15.0 8.6 10.8 76 2.2 SW 35 50 19 27 1017.5 1017.4 19.2
25/07:35am 15.3 10.3 10.9 75 2.3 WSW 28 46 15 25 1017.5 1017.4 19.2
25/07:30am 15.6 10.5 10.6 72 2.6 WSW 28 35 15 19 1017.5 1017.4 19.2
25/07:00am 14.2 10.5 9.6 74 2.4 W 19 22 10 12 1017.3 1017.2 19.2
25/06:37am 13.8 6.8 8.6 71 2.6 WSW 35 54 19 29 1017.3 1017.2 19.0
25/06:34am 14.5 9.1 9.5 72 2.6 W 28 54 15 29 1017.2 1017.1 19.0
25/06:30am 15.5 11.5 10.3 71 2.7 W 22 32 12 17 1017.1 1017.0 19.0
25/06:00am 14.9 10.8 10.1 73 2.5 W 22 26 12 14 1016.9 1016.8 19.0
25/05:30am 15.1 11.4 11.5 79 1.9 WSW 22 28 12 15 1016.7 1016.6 19.0
25/05:00am 14.9 12.2 13.6 92 0.7 WSW 20 30 11 16 1016.6 1016.5 19.0
25/04:30am 13.9 11.4 13.6 98 0.2 NW 19 41 10 22 1016.4 1016.3 19.0
25/04:08am 14.0 9.1 13.8 99 0.1 NNW 32 50 17 27 1016.3 1016.2 11.8
25/04:00am 14.1 9.2 13.6 97 0.3 NNW 32 48 17 26 1016.3 1016.2 7.8
25/03:58am 14.2 9.6 13.6 96 0.3 NNW 30 48 16 26 1016.3 1016.2 6.0
25/03:30am 14.5 9.6 13.7 95 0.4 NNW 32 39 17 21 1016.1 1016.0 3.8
25/03:00am 14.5 9.0 13.5 94 0.6 NNW 35 48 19 26 1016.3 1016.2 3.0
25/02:30am 14.7 8.1 12.7 88 1.1 NNW 39 46 21 25 1016.1 1016.0 1.0
25/02:00am 15.1 8.7 13.3 89 1.0 NNW 39 52 21 28 1016.4 1016.3 1.0
25/01:30am 14.3 8.2 11.6 84 1.4 NNW 35 44 19 24 1016.7 1016.6 0.8
25/01:00am 15.6 9.9 9.9 69 3.0 N 30 39 16 21 1016.6 1016.5 0.0
25/12:30am 16.1 9.8 9.8 66 3.3 NNW 33 43 18 23 1016.8 1016.7 0.0
25/12:00am 15.9 9.8 9.6 66 3.3 N 32 43 17 23 1016.7 1016.6 0.0
 
Date/Time
WST
Temp
°C
App
Temp
°C
Dew
Point
°C
Rel
Hum
%
Delta-T
°C
Wind Press
QNH
hPa
Press
MSL
hPa
Rain since
9am
mm
Dir  Spd
km/h
Gust
km/h
Spd
kts
Gust
kts
24/11:30pm 15.7 9.9 9.4 66 3.3 N 30 39 16 21 1017.1 1017.0 0.0
24/11:00pm 15.8 9.6 9.5 66 3.3 N 32 37 17 20 1017.3 1017.2 0.0
24/10:30pm 15.8 11.2 9.5 66 3.3 N 24 33 13 18 1017.3 1017.2 0.0
24/10:00pm 16.1 11.7 8.8 62 3.7 N 22 32 12 17 1017.2 1017.1 0.0
24/09:30pm 15.5 11.0 8.5 63 3.6 N 22 28 12 15 1017.2 1017.1 0.0
24/09:00pm 15.3 10.7 8.3 63 3.5 NNW 22 28 12 15 1017.4 1017.3 0.0
24/08:30pm 14.9 11.3 8.2 64 3.4 NNW 17 22 9 12 1017.6 1017.5 0.0
24/08:00pm 15.0 10.8 8.3 64 3.4 NNW 20 24 11 13 1017.4 1017.3 0.0
24/07:30pm 15.0 10.8 8.3 64 3.4 N 20 26 11 14 1017.4 1017.3 0.0
24/07:00pm 14.8 10.8 8.1 64 3.4 N 19 24 10 13 1017.4 1017.3 0.0
24/06:30pm 15.0 10.7 8.0 63 3.5 NNW 20 26 11 14 1017.3 1017.2 0.0
24/06:00pm 15.3 11.1 8.1 62 3.6 NNW 20 26 11 14 1017.2 1017.1 0.0
24/05:30pm 15.1 10.4 7.9 62 3.6 NNW 22 26 12 14 1017.0 1016.9 0.0
24/05:00pm 15.4 11.1 7.9 61 3.8 NNW 20 26 11 14 1017.1 1017.0 0.0
24/04:30pm 16.1 11.9 8.1 59 4.0 NNW 20 26 11 14 1017.0 1016.9 0.0
24/04:00pm 15.8 11.5 7.8 59 4.0 N 20 26 11 14 1016.9 1016.8 0.0
24/03:30pm 16.0 11.2 7.5 57 4.2 N 22 26 12 14 1016.9 1016.8 0.0
24/03:00pm 17.0 11.8 7.4 53 4.8 N 24 28 13 15 1016.9 1016.8 0.0
24/02:30pm 15.6 10.6 6.6 55 4.4 N 22 28 12 15 1017.2 1017.1 0.0
24/02:00pm 16.0 11.0 6.4 53 4.7 N 22 28 12 15 1017.3 1017.2 0.0
24/01:30pm 16.2 11.3 6.9 54 4.6 N 22 28 12 15 1017.7 1017.6 0.0
24/01:00pm 16.2 11.0 7.2 55 4.5 N 24 32 13 17 1018.2 1018.1 0.0
24/12:30pm 16.4 10.9 7.6 56 4.4 N 26 33 14 18 1018.6 1018.5 0.0
24/12:00pm 14.8 9.9 6.9 59 3.9 N 22 28 12 15 1019.2 1019.1 0.0
24/11:30am 14.3 7.7 6.2 58 3.9 NNE 30 35 16 19 1019.4 1019.3 0.0
24/11:00am 14.2 8.0 6.3 59 3.8 NNE 28 35 15 19 1019.8 1019.7 0.0
24/10:30am 14.0 7.9 6.8 62 3.5 N 28 35 15 19 1020.2 1020.1 0.0
24/10:00am 13.8 6.8 6.2 60 3.6 NNE 32 37 17 20 1020.1 1020.0 0.0
24/09:30am 13.6 6.6 6.2 61 3.5 NNE 32 43 17 23 1020.1 1020.0 0.0
24/09:00am 13.4 6.5 6.3 62 3.4 NNE 32 39 17 21 1020.0 1019.9 0.0
24/08:30am 13.2 6.3 6.3 63 3.3 NNE 32 39 17 21 1020.0 1019.9 0.0
24/08:00am 13.0 6.4 6.1 63 3.3 NNE 30 39 16 21 1019.7 1019.6 0.0
24/07:30am 12.5 6.3 6.1 65 3.0 NNE 28 35 15 19 1019.6 1019.5 0.0
24/07:00am 12.4 6.6 6.2 66 2.9 NNE 26 33 14 18 1019.6 1019.5 0.0
24/06:30am 12.8 6.7 6.6 66 3.0 NNE 28 37 15 20 1019.3 1019.2 0.0
24/06:00am 13.0 7.7 6.8 66 3.0 NNE 24 30 13 16 1019.5 1019.4 0.0
24/05:30am 13.1 7.9 7.1 67 2.9 NNE 24 30 13 16 1019.5 1019.4 0.0
24/05:00am 13.5 8.4 7.7 68 2.8 NNE 24 32 13 17 1019.4 1019.3 0.0
24/04:30am 13.5 8.7 7.3 66 3.0 NNE 22 28 12 15 1019.6 1019.5 0.0
24/04:00am 13.8 8.6 7.3 65 3.2 NNE 24 32 13 17 1019.5 1019.4 0.0
24/03:30am 13.8 10.1 7.8 67 3.0 NE 17 24 9 13 1019.7 1019.6 0.0
24/03:00am 13.8 9.6 7.3 65 3.2 NE 19 26 10 14 1019.7 1019.6 0.0
24/02:30am 13.9 9.8 7.9 67 3.0 NE 19 26 10 14 1019.9 1019.8 0.0
24/02:00am 13.7 10.3 7.7 67 3.0 NE 15 20 8 11 1020.1 1020.0 0.0
24/01:30am 13.8 10.0 7.6 66 3.1 NE 17 24 9 13 1020.3 1020.3 0.0
24/01:00am 13.8 10.4 7.6 66 3.0 NE 15 22 8 12 1020.4 1020.4 0.0
24/12:30am 13.7 10.7 7.5 66 3.0 NE 13 17 7 9 1020.8 1020.8 0.0
24/12:00am 13.4 9.9 7.0 65 3.1 NE 15 20 8 11 1021.0 1021.0 0.0
 
Date/Time
WST
Temp
°C
App
Temp
°C
Dew
Point
°C
Rel
Hum
%
Delta-T
°C
Wind Press
QNH
hPa
Press
MSL
hPa
Rain since
9am
mm
Dir  Spd
km/h
Gust
km/h
Spd
kts
Gust
kts
23/11:30pm 13.1 9.6 7.3 68 2.8 NE 15 17 8 9 1021.2 1021.2 0.0
23/11:00pm 13.5 10.2 6.6 63 3.3 E 13 15 7 8 1021.2 1021.2 0.0
23/10:30pm 13.6 10.6 6.2 61 3.5 E 11 13 6 7 1021.3 1021.3 0.0
23/10:00pm 14.1 11.6 6.5 60 3.7 E 9 11 5 6 1021.4 1021.4 0.0
23/09:30pm 14.2 11.8 6.8 61 3.6 E 9 9 5 5 1021.5 1021.5 0.0
23/09:00pm 14.2 12.1 6.8 61 3.6 E 7 9 4 5 1021.5 1021.5 0.0
23/08:30pm 14.1 12.2 6.7 61 3.6 E 6 9 3 5 1021.4 1021.4 0.0
23/08:00pm 14.4 12.2 6.3 58 3.9 ESE 7 9 4 5 1021.3 1021.3 0.0

Other Formats:

Comma delimited format used in spreadsheet applications
http://www.bom.gov.au/fwo/IDW60801/IDW60801.94602.axf

JavaScript Object Notation format (JSON) in row-major order
http://www.bom.gov.au/fwo/IDW60801/IDW60801.94602.json